sensor_id;sensor_type;location;lat;lon;timestamp;temperature;humidity
38325;DHT22;24126;52.672;13.622;2024-01-30T00:00:01;8.30;59.00
38325;DHT22;24126;52.672;13.622;2024-01-30T00:02:31;8.30;59.00
38325;DHT22;24126;52.672;13.622;2024-01-30T00:04:58;8.20;59.00
38325;DHT22;24126;52.672;13.622;2024-01-30T00:07:25;8.30;59.00
38325;DHT22;24126;52.672;13.622;2024-01-30T00:09:52;8.20;59.00
38325;DHT22;24126;52.672;13.622;2024-01-30T00:12:20;8.20;59.00
38325;DHT22;24126;52.672;13.622;2024-01-30T00:14:47;8.20;59.10
38325;DHT22;24126;52.672;13.622;2024-01-30T00:17:14;8.20;59.00
38325;DHT22;24126;52.672;13.622;2024-01-30T00:19:41;8.20;59.00
38325;DHT22;24126;52.672;13.622;2024-01-30T00:22:08;8.20;59.10
38325;DHT22;24126;52.672;13.622;2024-01-30T00:24:35;8.20;59.10
38325;DHT22;24126;52.672;13.622;2024-01-30T00:27:02;8.10;59.00
38325;DHT22;24126;52.672;13.622;2024-01-30T00:29:29;8.10;59.10
38325;DHT22;24126;52.672;13.622;2024-01-30T00:31:59;8.10;59.20
38325;DHT22;24126;52.672;13.622;2024-01-30T00:34:26;8.10;59.20
38325;DHT22;24126;52.672;13.622;2024-01-30T00:36:53;8.00;59.30
38325;DHT22;24126;52.672;13.622;2024-01-30T00:39:20;8.00;59.30
38325;DHT22;24126;52.672;13.622;2024-01-30T00:41:47;8.00;59.40
38325;DHT22;24126;52.672;13.622;2024-01-30T00:44:14;7.90;59.50
38325;DHT22;24126;52.672;13.622;2024-01-30T00:46:41;7.90;59.60
38325;DHT22;24126;52.672;13.622;2024-01-30T00:49:08;7.80;59.70
38325;DHT22;24126;52.672;13.622;2024-01-30T00:51:35;7.80;59.70
38325;DHT22;24126;52.672;13.622;2024-01-30T00:54:02;7.70;60.40
38325;DHT22;24126;52.672;13.622;2024-01-30T00:56:29;7.70;59.80
38325;DHT22;24126;52.672;13.622;2024-01-30T00:58:56;7.70;59.90
38325;DHT22;24126;52.672;13.622;2024-01-30T01:01:23;7.70;60.00
38325;DHT22;24126;52.672;13.622;2024-01-30T01:03:51;7.60;60.00
38325;DHT22;24126;52.672;13.622;2024-01-30T01:06:18;7.60;60.00
38325;DHT22;24126;52.672;13.622;2024-01-30T01:08:45;7.60;60.10
38325;DHT22;24126;52.672;13.622;2024-01-30T01:11:12;7.60;60.30
38325;DHT22;24126;52.672;13.622;2024-01-30T01:13:39;7.50;60.30
38325;DHT22;24126;52.672;13.622;2024-01-30T01:16:06;7.50;60.30
38325;DHT22;24126;52.672;13.622;2024-01-30T01:18:33;7.50;60.40
38325;DHT22;24126;52.672;13.622;2024-01-30T01:21:00;7.50;60.50
38325;DHT22;24126;52.672;13.622;2024-01-30T01:23:27;7.40;60.60
38325;DHT22;24126;52.672;13.622;2024-01-30T01:25:54;7.40;60.60
38325;DHT22;24126;52.672;13.622;2024-01-30T01:28:21;7.40;60.70
38325;DHT22;24126;52.672;13.622;2024-01-30T01:30:48;7.40;60.80
38325;DHT22;24126;52.672;13.622;2024-01-30T01:33:15;7.30;60.80
38325;DHT22;24126;52.672;13.622;2024-01-30T01:35:43;7.30;60.80
38325;DHT22;24126;52.672;13.622;2024-01-30T01:38:10;7.30;60.80
38325;DHT22;24126;52.672;13.622;2024-01-30T01:40:37;7.30;60.90
38325;DHT22;24126;52.672;13.622;2024-01-30T01:43:06;7.30;60.90
38325;DHT22;24126;52.672;13.622;2024-01-30T01:45:33;7.30;60.90
38325;DHT22;24126;52.672;13.622;2024-01-30T01:48:00;7.30;61.00
38325;DHT22;24126;52.672;13.622;2024-01-30T01:50:28;7.20;61.00
38325;DHT22;24126;52.672;13.622;2024-01-30T01:52:55;7.20;61.10
38325;DHT22;24126;52.672;13.622;2024-01-30T01:55:22;7.30;61.20
38325;DHT22;24126;52.672;13.622;2024-01-30T01:57:50;7.20;61.20
38325;DHT22;24126;52.672;13.622;2024-01-30T02:00:18;7.20;61.20
38325;DHT22;24126;52.672;13.622;2024-01-30T02:02:46;7.20;61.30
38325;DHT22;24126;52.672;13.622;2024-01-30T02:05:14;7.20;61.30
38325;DHT22;24126;52.672;13.622;2024-01-30T02:07:41;7.20;61.40
38325;DHT22;24126;52.672;13.622;2024-01-30T02:10:09;7.20;61.40
38325;DHT22;24126;52.672;13.622;2024-01-30T02:12:36;7.20;62.20
38325;DHT22;24126;52.672;13.622;2024-01-30T02:15:04;7.20;61.50
38325;DHT22;24126;52.672;13.622;2024-01-30T02:17:34;7.20;61.50
38325;DHT22;24126;52.672;13.622;2024-01-30T02:20:01;7.20;61.50
38325;DHT22;24126;52.672;13.622;2024-01-30T02:22:29;7.20;61.50
38325;DHT22;24126;52.672;13.622;2024-01-30T02:24:56;7.20;61.60
38325;DHT22;24126;52.672;13.622;2024-01-30T02:27:23;7.20;61.70
38325;DHT22;24126;52.672;13.622;2024-01-30T02:29:50;7.20;61.80
38325;DHT22;24126;52.672;13.622;2024-01-30T02:32:17;7.10;61.80
38325;DHT22;24126;52.672;13.622;2024-01-30T02:34:44;7.10;61.80
38325;DHT22;24126;52.672;13.622;2024-01-30T02:37:11;7.10;62.00
38325;DHT22;24126;52.672;13.622;2024-01-30T02:39:38;7.10;62.00
38325;DHT22;24126;52.672;13.622;2024-01-30T02:42:05;7.10;62.00
38325;DHT22;24126;52.672;13.622;2024-01-30T02:44:32;7.10;62.10
38325;DHT22;24126;52.672;13.622;2024-01-30T02:46:59;7.10;62.10
38325;DHT22;24126;52.672;13.622;2024-01-30T02:49:26;7.10;62.10
38325;DHT22;24126;52.672;13.622;2024-01-30T02:51:53;7.10;62.30
38325;DHT22;24126;52.672;13.622;2024-01-30T02:54:20;7.10;62.30
38325;DHT22;24126;52.672;13.622;2024-01-30T02:56:47;7.10;62.20
38325;DHT22;24126;52.672;13.622;2024-01-30T02:59:15;7.10;62.20
38325;DHT22;24126;52.672;13.622;2024-01-30T03:01:45;7.20;62.30
38325;DHT22;24126;52.672;13.622;2024-01-30T03:04:13;7.20;62.30
38325;DHT22;24126;52.672;13.622;2024-01-30T03:06:44;7.20;62.30
38325;DHT22;24126;52.672;13.622;2024-01-30T03:09:11;7.20;62.40
38325;DHT22;24126;52.672;13.622;2024-01-30T03:11:38;7.10;62.50
38325;DHT22;24126;52.672;13.622;2024-01-30T03:14:05;7.10;62.80
38325;DHT22;24126;52.672;13.622;2024-01-30T03:16:32;7.10;62.90
38325;DHT22;24126;52.672;13.622;2024-01-30T03:18:59;7.10;63.10
38325;DHT22;24126;52.672;13.622;2024-01-30T03:21:27;7.10;63.30
38325;DHT22;24126;52.672;13.622;2024-01-30T03:23:54;7.10;63.40
38325;DHT22;24126;52.672;13.622;2024-01-30T03:26:21;7.00;63.30
38325;DHT22;24126;52.672;13.622;2024-01-30T03:28:49;7.00;63.50
38325;DHT22;24126;52.672;13.622;2024-01-30T03:31:16;7.00;63.60
38325;DHT22;24126;52.672;13.622;2024-01-30T03:33:43;7.00;63.70
38325;DHT22;24126;52.672;13.622;2024-01-30T03:36:10;7.00;63.70
38325;DHT22;24126;52.672;13.622;2024-01-30T03:38:37;7.00;63.70
38325;DHT22;24126;52.672;13.622;2024-01-30T03:41:07;7.00;63.60
38325;DHT22;24126;52.672;13.622;2024-01-30T03:43:34;7.00;63.60
38325;DHT22;24126;52.672;13.622;2024-01-30T03:46:01;7.00;63.70
38325;DHT22;24126;52.672;13.622;2024-01-30T03:48:28;7.00;63.70
38325;DHT22;24126;52.672;13.622;2024-01-30T03:50:55;7.00;63.80
38325;DHT22;24126;52.672;13.622;2024-01-30T03:53:22;7.00;63.80
38325;DHT22;24126;52.672;13.622;2024-01-30T03:55:49;7.00;64.50
38325;DHT22;24126;52.672;13.622;2024-01-30T03:58:16;7.00;63.70
38325;DHT22;24126;52.672;13.622;2024-01-30T04:00:43;7.00;63.90
38325;DHT22;24126;52.672;13.622;2024-01-30T04:03:11;7.00;63.90
38325;DHT22;24126;52.672;13.622;2024-01-30T04:05:38;7.00;63.90
38325;DHT22;24126;52.672;13.622;2024-01-30T04:08:05;7.00;63.90
38325;DHT22;24126;52.672;13.622;2024-01-30T04:10:32;7.00;64.00
38325;DHT22;24126;52.672;13.622;2024-01-30T04:12:59;7.00;64.80
38325;DHT22;24126;52.672;13.622;2024-01-30T04:15:26;7.00;64.20
38325;DHT22;24126;52.672;13.622;2024-01-30T04:17:57;7.00;64.30
38325;DHT22;24126;52.672;13.622;2024-01-30T04:20:24;7.00;64.30
38325;DHT22;24126;52.672;13.622;2024-01-30T04:22:51;7.00;64.30
38325;DHT22;24126;52.672;13.622;2024-01-30T04:25:18;7.00;64.30
38325;DHT22;24126;52.672;13.622;2024-01-30T04:27:45;7.00;64.30
38325;DHT22;24126;52.672;13.622;2024-01-30T04:30:12;7.00;64.30
38325;DHT22;24126;52.672;13.622;2024-01-30T04:32:39;7.00;64.40
38325;DHT22;24126;52.672;13.622;2024-01-30T04:35:06;7.00;64.50
38325;DHT22;24126;52.672;13.622;2024-01-30T04:37:33;7.00;64.50
38325;DHT22;24126;52.672;13.622;2024-01-30T04:40:00;7.00;64.50
38325;DHT22;24126;52.672;13.622;2024-01-30T04:42:29;7.00;64.50
38325;DHT22;24126;52.672;13.622;2024-01-30T04:44:56;7.00;64.60
38325;DHT22;24126;52.672;13.622;2024-01-30T04:47:23;7.00;64.70
38325;DHT22;24126;52.672;13.622;2024-01-30T04:49:51;7.00;64.90
38325;DHT22;24126;52.672;13.622;2024-01-30T04:52:18;7.00;64.90
38325;DHT22;24126;52.672;13.622;2024-01-30T04:54:45;7.00;65.00
38325;DHT22;24126;52.672;13.622;2024-01-30T04:57:12;6.90;65.00
38325;DHT22;24126;52.672;13.622;2024-01-30T04:59:39;6.90;65.10
38325;DHT22;24126;52.672;13.622;2024-01-30T05:02:06;7.00;65.20
38325;DHT22;24126;52.672;13.622;2024-01-30T05:04:33;7.00;65.10
38325;DHT22;24126;52.672;13.622;2024-01-30T05:07:00;7.00;65.20
38325;DHT22;24126;52.672;13.622;2024-01-30T05:09:28;7.00;65.10
38325;DHT22;24126;52.672;13.622;2024-01-30T05:11:55;7.00;65.20
38325;DHT22;24126;52.672;13.622;2024-01-30T05:14:22;7.00;65.30
38325;DHT22;24126;52.672;13.622;2024-01-30T05:16:49;7.00;65.30
38325;DHT22;24126;52.672;13.622;2024-01-30T05:19:16;7.00;65.30
38325;DHT22;24126;52.672;13.622;2024-01-30T05:21:44;7.00;65.40
38325;DHT22;24126;52.672;13.622;2024-01-30T05:24:11;7.00;65.40
38325;DHT22;24126;52.672;13.622;2024-01-30T05:26:39;7.00;65.50
38325;DHT22;24126;52.672;13.622;2024-01-30T05:29:06;7.00;65.60
38325;DHT22;24126;52.672;13.622;2024-01-30T05:31:33;6.90;65.50
38325;DHT22;24126;52.672;13.622;2024-01-30T05:34:01;6.90;65.60
38325;DHT22;24126;52.672;13.622;2024-01-30T05:36:28;6.90;65.70
38325;DHT22;24126;52.672;13.622;2024-01-30T05:38:55;6.90;65.70
38325;DHT22;24126;52.672;13.622;2024-01-30T05:41:23;6.90;65.80
38325;DHT22;24126;52.672;13.622;2024-01-30T05:43:50;6.90;65.80
38325;DHT22;24126;52.672;13.622;2024-01-30T05:46:17;6.90;65.80
38325;DHT22;24126;52.672;13.622;2024-01-30T05:48:44;6.90;65.90
38325;DHT22;24126;52.672;13.622;2024-01-30T05:51:11;6.90;65.90
38325;DHT22;24126;52.672;13.622;2024-01-30T05:53:38;6.90;65.90
38325;DHT22;24126;52.672;13.622;2024-01-30T05:56:05;6.90;65.90
38325;DHT22;24126;52.672;13.622;2024-01-30T05:58:32;7.00;65.90
38325;DHT22;24126;52.672;13.622;2024-01-30T06:00:59;6.90;65.90
38325;DHT22;24126;52.672;13.622;2024-01-30T06:03:26;7.00;66.00
38325;DHT22;24126;52.672;13.622;2024-01-30T06:05:54;7.00;65.90
38325;DHT22;24126;52.672;13.622;2024-01-30T06:08:21;7.00;65.80
38325;DHT22;24126;52.672;13.622;2024-01-30T06:10:48;7.00;65.90
38325;DHT22;24126;52.672;13.622;2024-01-30T06:13:15;7.00;65.80
38325;DHT22;24126;52.672;13.622;2024-01-30T06:15:42;7.00;65.70
38325;DHT22;24126;52.672;13.622;2024-01-30T06:18:09;6.90;65.80
38325;DHT22;24126;52.672;13.622;2024-01-30T06:20:36;6.90;65.90
38325;DHT22;24126;52.672;13.622;2024-01-30T06:23:03;6.90;65.90
38325;DHT22;24126;52.672;13.622;2024-01-30T06:25:30;6.90;65.90
38325;DHT22;24126;52.672;13.622;2024-01-30T06:27:57;6.90;66.00
38325;DHT22;24126;52.672;13.622;2024-01-30T06:30:24;6.90;66.00
38325;DHT22;24126;52.672;13.622;2024-01-30T06:32:51;6.90;65.90
38325;DHT22;24126;52.672;13.622;2024-01-30T06:35:18;6.90;66.00
38325;DHT22;24126;52.672;13.622;2024-01-30T06:37:45;6.90;65.90
38325;DHT22;24126;52.672;13.622;2024-01-30T06:40:12;6.90;65.90
38325;DHT22;24126;52.672;13.622;2024-01-30T06:42:39;6.90;66.10
38325;DHT22;24126;52.672;13.622;2024-01-30T06:45:06;6.90;66.20
38325;DHT22;24126;52.672;13.622;2024-01-30T06:47:34;6.80;66.20
38325;DHT22;24126;52.672;13.622;2024-01-30T06:50:01;6.80;66.20
38325;DHT22;24126;52.672;13.622;2024-01-30T06:52:29;6.80;66.20
38325;DHT22;24126;52.672;13.622;2024-01-30T06:54:56;6.80;66.30
38325;DHT22;24126;52.672;13.622;2024-01-30T06:57:23;6.80;66.30
38325;DHT22;24126;52.672;13.622;2024-01-30T06:59:57;6.90;66.30
38325;DHT22;24126;52.672;13.622;2024-01-30T07:02:24;6.90;66.10
38325;DHT22;24126;52.672;13.622;2024-01-30T07:04:51;6.90;66.30
38325;DHT22;24126;52.672;13.622;2024-01-30T07:07:18;6.90;66.30
38325;DHT22;24126;52.672;13.622;2024-01-30T07:09:45;6.90;66.20
38325;DHT22;24126;52.672;13.622;2024-01-30T07:12:13;6.90;66.20
38325;DHT22;24126;52.672;13.622;2024-01-30T07:14:40;6.90;66.20
38325;DHT22;24126;52.672;13.622;2024-01-30T07:17:07;7.00;66.20
38325;DHT22;24126;52.672;13.622;2024-01-30T07:19:34;7.00;66.20
38325;DHT22;24126;52.672;13.622;2024-01-30T07:22:01;7.00;66.10
38325;DHT22;24126;52.672;13.622;2024-01-30T07:24:28;7.00;66.10
38325;DHT22;24126;52.672;13.622;2024-01-30T07:26:55;7.00;66.00
38325;DHT22;24126;52.672;13.622;2024-01-30T07:29:22;7.10;66.10
38325;DHT22;24126;52.672;13.622;2024-01-30T07:31:49;7.10;65.90
38325;DHT22;24126;52.672;13.622;2024-01-30T07:34:16;7.10;65.90
38325;DHT22;24126;52.672;13.622;2024-01-30T07:36:43;7.20;65.90
38325;DHT22;24126;52.672;13.622;2024-01-30T07:39:12;7.20;65.90
38325;DHT22;24126;52.672;13.622;2024-01-30T07:41:39;7.20;65.90
38325;DHT22;24126;52.672;13.622;2024-01-30T07:44:06;7.20;65.90
38325;DHT22;24126;52.672;13.622;2024-01-30T07:46:33;7.30;66.00
38325;DHT22;24126;52.672;13.622;2024-01-30T07:49:00;7.30;65.90
38325;DHT22;24126;52.672;13.622;2024-01-30T07:51:28;7.30;65.90
38325;DHT22;24126;52.672;13.622;2024-01-30T07:53:57;7.40;66.00
38325;DHT22;24126;52.672;13.622;2024-01-30T07:56:24;7.40;66.00
38325;DHT22;24126;52.672;13.622;2024-01-30T07:58:52;7.40;66.00
38325;DHT22;24126;52.672;13.622;2024-01-30T08:01:19;7.40;66.00
38325;DHT22;24126;52.672;13.622;2024-01-30T08:03:46;7.50;65.90
38325;DHT22;24126;52.672;13.622;2024-01-30T08:06:13;7.50;66.00
38325;DHT22;24126;52.672;13.622;2024-01-30T08:08:40;7.50;66.00
38325;DHT22;24126;52.672;13.622;2024-01-30T08:11:07;7.50;65.80
38325;DHT22;24126;52.672;13.622;2024-01-30T08:13:34;7.50;65.90
38325;DHT22;24126;52.672;13.622;2024-01-30T08:16:01;7.50;66.10
38325;DHT22;24126;52.672;13.622;2024-01-30T08:18:28;7.50;66.10
38325;DHT22;24126;52.672;13.622;2024-01-30T08:20:55;7.60;66.10
38325;DHT22;24126;52.672;13.622;2024-01-30T08:23:22;7.60;65.90
38325;DHT22;24126;52.672;13.622;2024-01-30T08:25:50;7.70;66.00
38325;DHT22;24126;52.672;13.622;2024-01-30T08:28:17;7.80;65.80
38325;DHT22;24126;52.672;13.622;2024-01-30T08:30:44;7.90;65.70
38325;DHT22;24126;52.672;13.622;2024-01-30T08:33:11;8.00;65.60
38325;DHT22;24126;52.672;13.622;2024-01-30T08:35:38;8.10;65.30
38325;DHT22;24126;52.672;13.622;2024-01-30T08:38:05;8.30;64.90
38325;DHT22;24126;52.672;13.622;2024-01-30T08:40:32;8.50;64.60
38325;DHT22;24126;52.672;13.622;2024-01-30T08:42:59;8.80;65.10
38325;DHT22;24126;52.672;13.622;2024-01-30T08:45:26;9.10;63.30
38325;DHT22;24126;52.672;13.622;2024-01-30T08:47:53;9.40;62.50
38325;DHT22;24126;52.672;13.622;2024-01-30T08:50:20;9.70;61.60
38325;DHT22;24126;52.672;13.622;2024-01-30T08:52:47;10.00;61.00
38325;DHT22;24126;52.672;13.622;2024-01-30T08:55:14;10.20;60.30
38325;DHT22;24126;52.672;13.622;2024-01-30T08:57:41;10.40;59.70
38325;DHT22;24126;52.672;13.622;2024-01-30T09:00:08;10.50;59.20
38325;DHT22;24126;52.672;13.622;2024-01-30T09:02:36;10.60;58.80
38325;DHT22;24126;52.672;13.622;2024-01-30T09:05:03;10.50;58.70
38325;DHT22;24126;52.672;13.622;2024-01-30T09:07:30;10.50;58.90
38325;DHT22;24126;52.672;13.622;2024-01-30T09:09:57;10.50;58.90
38325;DHT22;24126;52.672;13.622;2024-01-30T09:12:24;10.50;58.90
38325;DHT22;24126;52.672;13.622;2024-01-30T09:14:51;10.40;59.10
38325;DHT22;24126;52.672;13.622;2024-01-30T09:17:18;10.30;59.30
38325;DHT22;24126;52.672;13.622;2024-01-30T09:19:46;10.10;59.50
38325;DHT22;24126;52.672;13.622;2024-01-30T09:22:13;10.00;59.80
38325;DHT22;24126;52.672;13.622;2024-01-30T09:24:40;9.90;60.10
38325;DHT22;24126;52.672;13.622;2024-01-30T09:27:07;9.80;60.40
38325;DHT22;24126;52.672;13.622;2024-01-30T09:29:34;9.80;60.80
38325;DHT22;24126;52.672;13.622;2024-01-30T09:32:02;9.70;60.80
38325;DHT22;24126;52.672;13.622;2024-01-30T09:34:30;9.70;61.00
38325;DHT22;24126;52.672;13.622;2024-01-30T09:36:58;9.60;61.30
38325;DHT22;24126;52.672;13.622;2024-01-30T09:39:25;9.60;61.40
38325;DHT22;24126;52.672;13.622;2024-01-30T09:41:55;9.60;61.40
38325;DHT22;24126;52.672;13.622;2024-01-30T09:44:28;9.60;61.50
38325;DHT22;24126;52.672;13.622;2024-01-30T09:46:56;9.60;61.50
38325;DHT22;24126;52.672;13.622;2024-01-30T09:49:24;9.60;61.60
38325;DHT22;24126;52.672;13.622;2024-01-30T09:51:51;9.60;61.50
38325;DHT22;24126;52.672;13.622;2024-01-30T09:54:18;9.60;61.70
38325;DHT22;24126;52.672;13.622;2024-01-30T09:56:47;9.60;61.60
38325;DHT22;24126;52.672;13.622;2024-01-30T09:59:14;9.60;61.50
38325;DHT22;24126;52.672;13.622;2024-01-30T10:01:42;9.70;61.50
38325;DHT22;24126;52.672;13.622;2024-01-30T10:04:09;9.70;61.60
38325;DHT22;24126;52.672;13.622;2024-01-30T10:06:36;9.80;61.70
38325;DHT22;24126;52.672;13.622;2024-01-30T10:09:03;9.80;61.40
38325;DHT22;24126;52.672;13.622;2024-01-30T10:11:31;9.90;61.40
38325;DHT22;24126;52.672;13.622;2024-01-30T10:13:58;9.90;61.30
38325;DHT22;24126;52.672;13.622;2024-01-30T10:16:25;10.00;61.20
38325;DHT22;24126;52.672;13.622;2024-01-30T10:18:52;10.00;61.10
38325;DHT22;24126;52.672;13.622;2024-01-30T10:21:19;10.10;61.00
38325;DHT22;24126;52.672;13.622;2024-01-30T10:23:46;10.10;60.80
38325;DHT22;24126;52.672;13.622;2024-01-30T10:26:13;10.20;60.70
38325;DHT22;24126;52.672;13.622;2024-01-30T10:28:40;10.30;60.70
38325;DHT22;24126;52.672;13.622;2024-01-30T10:31:07;10.30;60.70
38325;DHT22;24126;52.672;13.622;2024-01-30T10:33:34;10.40;60.50
38325;DHT22;24126;52.672;13.622;2024-01-30T10:36:02;10.40;60.30
38325;DHT22;24126;52.672;13.622;2024-01-30T10:38:30;10.40;60.40
38325;DHT22;24126;52.672;13.622;2024-01-30T10:40:58;10.40;60.20
38325;DHT22;24126;52.672;13.622;2024-01-30T10:43:32;10.50;60.20
38325;DHT22;24126;52.672;13.622;2024-01-30T10:46:06;10.50;60.20
38325;DHT22;24126;52.672;13.622;2024-01-30T10:48:37;10.50;60.10
38325;DHT22;24126;52.672;13.622;2024-01-30T10:51:09;10.60;60.20
38325;DHT22;24126;52.672;13.622;2024-01-30T10:53:36;10.60;60.10
38325;DHT22;24126;52.672;13.622;2024-01-30T10:56:04;10.70;60.00
38325;DHT22;24126;52.672;13.622;2024-01-30T10:58:31;10.70;59.90
38325;DHT22;24126;52.672;13.622;2024-01-30T11:00:58;10.70;59.90
38325;DHT22;24126;52.672;13.622;2024-01-30T11:03:25;10.80;60.10
38325;DHT22;24126;52.672;13.622;2024-01-30T11:05:53;10.80;60.10
38325;DHT22;24126;52.672;13.622;2024-01-30T11:08:26;10.90;60.20
38325;DHT22;24126;52.672;13.622;2024-01-30T11:10:55;11.00;60.30
38325;DHT22;24126;52.672;13.622;2024-01-30T11:13:22;11.00;60.10
38325;DHT22;24126;52.672;13.622;2024-01-30T11:15:53;11.10;60.20
38325;DHT22;24126;52.672;13.622;2024-01-30T11:18:24;11.20;60.30
38325;DHT22;24126;52.672;13.622;2024-01-30T11:20:51;11.30;60.00
38325;DHT22;24126;52.672;13.622;2024-01-30T11:23:18;11.30;60.00
38325;DHT22;24126;52.672;13.622;2024-01-30T11:25:45;11.40;60.10
38325;DHT22;24126;52.672;13.622;2024-01-30T11:28:13;11.50;60.00
38325;DHT22;24126;52.672;13.622;2024-01-30T11:30:41;11.60;59.90
38325;DHT22;24126;52.672;13.622;2024-01-30T11:33:11;11.70;59.80
38325;DHT22;24126;52.672;13.622;2024-01-30T11:35:39;11.70;59.60
38325;DHT22;24126;52.672;13.622;2024-01-30T11:38:07;11.80;59.90
38325;DHT22;24126;52.672;13.622;2024-01-30T11:40:36;11.90;60.40
38325;DHT22;24126;52.672;13.622;2024-01-30T11:43:04;11.90;59.60
38325;DHT22;24126;52.672;13.622;2024-01-30T11:45:32;12.00;59.40
38325;DHT22;24126;52.672;13.622;2024-01-30T11:48:00;12.10;59.30
38325;DHT22;24126;52.672;13.622;2024-01-30T11:50:29;12.10;59.30
38325;DHT22;24126;52.672;13.622;2024-01-30T11:52:56;12.10;59.30
38325;DHT22;24126;52.672;13.622;2024-01-30T11:55:24;12.20;59.30
38325;DHT22;24126;52.672;13.622;2024-01-30T11:57:51;12.20;59.10
38325;DHT22;24126;52.672;13.622;2024-01-30T12:00:18;12.20;59.00
38325;DHT22;24126;52.672;13.622;2024-01-30T12:02:53;12.20;58.90
38325;DHT22;24126;52.672;13.622;2024-01-30T12:05:23;12.20;58.90
38325;DHT22;24126;52.672;13.622;2024-01-30T12:07:50;12.20;59.00
38325;DHT22;24126;52.672;13.622;2024-01-30T12:10:17;12.20;59.10
38325;DHT22;24126;52.672;13.622;2024-01-30T12:12:48;12.20;59.00
38325;DHT22;24126;52.672;13.622;2024-01-30T12:15:16;12.20;59.00
38325;DHT22;24126;52.672;13.622;2024-01-30T12:17:43;12.20;59.10
38325;DHT22;24126;52.672;13.622;2024-01-30T12:20:14;12.20;59.10
38325;DHT22;24126;52.672;13.622;2024-01-30T12:22:42;12.30;59.20
38325;DHT22;24126;52.672;13.622;2024-01-30T12:25:10;12.30;58.90
38325;DHT22;24126;52.672;13.622;2024-01-30T12:27:38;12.30;59.00
38325;DHT22;24126;52.672;13.622;2024-01-30T12:30:08;12.30;58.80
38325;DHT22;24126;52.672;13.622;2024-01-30T12:32:45;12.30;59.00
38325;DHT22;24126;52.672;13.622;2024-01-30T12:35:14;12.40;59.10
38325;DHT22;24126;52.672;13.622;2024-01-30T12:37:42;12.40;58.50
38325;DHT22;24126;52.672;13.622;2024-01-30T12:40:10;12.40;58.80
38325;DHT22;24126;52.672;13.622;2024-01-30T12:42:39;12.50;58.60
38325;DHT22;24126;52.672;13.622;2024-01-30T12:45:06;12.50;58.90
38325;DHT22;24126;52.672;13.622;2024-01-30T12:47:34;12.50;58.60
38325;DHT22;24126;52.672;13.622;2024-01-30T12:50:01;12.60;58.30
38325;DHT22;24126;52.672;13.622;2024-01-30T12:52:29;12.60;58.50
38325;DHT22;24126;52.672;13.622;2024-01-30T12:54:56;12.60;58.30
38325;DHT22;24126;52.672;13.622;2024-01-30T12:57:23;12.60;58.40
38325;DHT22;24126;52.672;13.622;2024-01-30T12:59:50;12.70;58.60
38325;DHT22;24126;52.672;13.622;2024-01-30T13:02:17;12.70;58.50
38325;DHT22;24126;52.672;13.622;2024-01-30T13:04:44;12.70;58.30
38325;DHT22;24126;52.672;13.622;2024-01-30T13:07:11;12.70;58.60
38325;DHT22;24126;52.672;13.622;2024-01-30T13:09:38;12.70;58.50
38325;DHT22;24126;52.672;13.622;2024-01-30T13:12:06;12.70;58.50
38325;DHT22;24126;52.672;13.622;2024-01-30T13:14:37;12.70;58.70
38325;DHT22;24126;52.672;13.622;2024-01-30T13:17:04;12.80;58.90
38325;DHT22;24126;52.672;13.622;2024-01-30T13:19:31;12.80;59.20
38325;DHT22;24126;52.672;13.622;2024-01-30T13:21:58;12.70;58.90
38325;DHT22;24126;52.672;13.622;2024-01-30T13:24:25;12.70;58.80
38325;DHT22;24126;52.672;13.622;2024-01-30T13:26:53;12.80;58.90
38325;DHT22;24126;52.672;13.622;2024-01-30T13:29:20;12.70;58.60
38325;DHT22;24126;52.672;13.622;2024-01-30T13:31:47;12.70;58.80
38325;DHT22;24126;52.672;13.622;2024-01-30T13:34:14;12.70;58.80
38325;DHT22;24126;52.672;13.622;2024-01-30T13:36:41;12.70;58.70
38325;DHT22;24126;52.672;13.622;2024-01-30T13:39:09;12.70;58.90
38325;DHT22;24126;52.672;13.622;2024-01-30T13:41:38;12.70;58.90
38325;DHT22;24126;52.672;13.622;2024-01-30T13:44:05;12.70;59.00
38325;DHT22;24126;52.672;13.622;2024-01-30T13:46:32;12.60;59.00
38325;DHT22;24126;52.672;13.622;2024-01-30T13:49:00;12.60;59.10
38325;DHT22;24126;52.672;13.622;2024-01-30T13:51:27;12.60;59.20
38325;DHT22;24126;52.672;13.622;2024-01-30T13:53:54;12.60;59.60
38325;DHT22;24126;52.672;13.622;2024-01-30T13:56:21;12.50;59.60
38325;DHT22;24126;52.672;13.622;2024-01-30T13:58:48;12.60;59.70
38325;DHT22;24126;52.672;13.622;2024-01-30T14:01:16;12.50;59.90
38325;DHT22;24126;52.672;13.622;2024-01-30T14:03:43;12.50;60.00
38325;DHT22;24126;52.672;13.622;2024-01-30T14:06:11;12.50;60.20
38325;DHT22;24126;52.672;13.622;2024-01-30T14:08:38;12.40;60.30
38325;DHT22;24126;52.672;13.622;2024-01-30T14:11:05;12.40;60.30
38325;DHT22;24126;52.672;13.622;2024-01-30T14:13:32;12.30;60.40
38325;DHT22;24126;52.672;13.622;2024-01-30T14:16:00;12.30;60.40
38325;DHT22;24126;52.672;13.622;2024-01-30T14:18:27;12.30;60.50
38325;DHT22;24126;52.672;13.622;2024-01-30T14:20:54;12.30;60.70
38325;DHT22;24126;52.672;13.622;2024-01-30T14:23:21;12.20;60.80
38325;DHT22;24126;52.672;13.622;2024-01-30T14:25:48;12.20;60.90
38325;DHT22;24126;52.672;13.622;2024-01-30T14:28:17;12.20;61.70
38325;DHT22;24126;52.672;13.622;2024-01-30T14:30:44;12.20;61.20
38325;DHT22;24126;52.672;13.622;2024-01-30T14:33:11;12.10;61.20
38325;DHT22;24126;52.672;13.622;2024-01-30T14:35:38;12.10;61.40
38325;DHT22;24126;52.672;13.622;2024-01-30T14:38:05;12.00;61.50
38325;DHT22;24126;52.672;13.622;2024-01-30T14:40:33;12.00;61.70
38325;DHT22;24126;52.672;13.622;2024-01-30T14:43:00;12.00;61.90
38325;DHT22;24126;52.672;13.622;2024-01-30T14:45:27;11.90;62.00
38325;DHT22;24126;52.672;13.622;2024-01-30T14:47:54;11.90;62.10
38325;DHT22;24126;52.672;13.622;2024-01-30T14:50:22;11.90;62.20
38325;DHT22;24126;52.672;13.622;2024-01-30T14:52:49;11.90;62.20
38325;DHT22;24126;52.672;13.622;2024-01-30T14:55:16;11.90;62.20
38325;DHT22;24126;52.672;13.622;2024-01-30T14:57:44;11.90;62.30
38325;DHT22;24126;52.672;13.622;2024-01-30T15:00:12;11.90;62.30
38325;DHT22;24126;52.672;13.622;2024-01-30T15:02:40;11.80;62.20
38325;DHT22;24126;52.672;13.622;2024-01-30T15:05:07;11.80;62.10
38325;DHT22;24126;52.672;13.622;2024-01-30T15:07:37;11.80;62.10
38325;DHT22;24126;52.672;13.622;2024-01-30T15:10:04;11.80;62.10
38325;DHT22;24126;52.672;13.622;2024-01-30T15:12:32;11.70;62.00
38325;DHT22;24126;52.672;13.622;2024-01-30T15:14:59;11.70;62.00
38325;DHT22;24126;52.672;13.622;2024-01-30T15:17:26;11.70;62.10
38325;DHT22;24126;52.672;13.622;2024-01-30T15:19:53;11.70;62.10
38325;DHT22;24126;52.672;13.622;2024-01-30T15:22:20;11.70;62.20
38325;DHT22;24126;52.672;13.622;2024-01-30T15:24:48;11.60;62.20